Aviation Digital Data Service (ADDS)

Output produced by METARs form (2152 UTC 19 February 2018)
found at http://www.aviationweather.gov/adds/metars/
 
LIEA 192120Z 32003KT CAVOK 09/05 Q1013
TAF LIEA 191700Z 1918/2018 28008KT 9999 SCT030 
     TEMPO 2006/2010 RA
       
LIBA 191755Z 30015KT 9999 FEW030 SCT040 07/06 Q1011 RMK OVC BKN070 VIS MIN 9999 WIND THR11 29014KT WIND THR29 /////KT BLU
TAF LIBA 191700Z 1918/2003 29015KT 7000 FEW020 SCT040 BKN065 
     TEMPO 1918/1921 5000 RA
       
LIMW 191720Z AUTO 10012KT 9999 NCD 03/M02 Q1012
TAF LIMW 191700Z 1918/2003 10010KT CAVOK
       
LIPA 192055Z 23002KT CAVOK 02/M04 Q1014 RMK FEW FEW140 VIS MIN 9999 WIND THR05 /////KT WIND THR23 /////KT A2996 BLU
TAF LIPA 192000Z 1921/2006 06006KT 9999 BKN100
       
LIME 192120Z VRB01KT 9999 BKN025 03/M01 Q1013 NOSIG
TAF LIME 191700Z 1918/2018 VRB05KT 6000 BKN050
       
LIPE 192120Z 22004KT 9000 NSC 01/M00 Q1015
TAF LIPE 191700Z 1918/2018 VRB05KT 8000 SCT015 BKN030
       
LIPB 192050Z 11004KT 050V150 9999 SCT050 SCT070 05/M02 Q1013
TAF LIPB 191700Z 1918/2018 VRB05KT 9999 SCT080
       
LIMN 191755Z 14004KT 9999 SCT030 04/M01 Q1015 RMK BKN SCT080 VIS MIN 9999 BLU
TAF LIMN 191700Z 1918/2003 15006KT 9999 SCT020 
     TEMPO 1920/2003 4000 BR
       
LIRN 192120Z 34005KT 290V010 6000 RA SCT025 BKN040 11/09 Q1010 NOSIG
TAF LIRN 191700Z 1918/2018 VRB05KT 6000 RA SCT030 
     BECMG 2009/2011 24010KT
       
LIBR 192120Z 32003KT 9999 FEW015 BKN045 10/09 Q1010
TAF AMD LIBR 191714Z 1918/2018 VRB06KT 6000 SCT030 
     TEMPO 1918/1922 3000 SHRA 
     TEMPO 2003/2009 4000 RA 
     TEMPO 2009/2018 3000 SHRA
       
LICC 192120Z 31006KT 9999 SCT030 SCT050 12/09 Q1010
TAF LICC 191700Z 1918/2018 27010KT 9999 SCT040 
     TEMPO 2015/2018 SHRA
       
LIPC 192055Z 28006KT 9999 BKN040 04/02 Q1015 RMK BKN VIS MIN 9999 WIND THR11 28006KT WIND THR29 /////KT BLU
TAF LIPC 192000Z 1921/2006 28008KT 9999 BKN030 
     TEMPO 1921/2006 2000 BR BKN015 
     PROB40 
     TEMPO 2000/2006 30015G25KT
       
LIRA 192120Z 02005KT 340V050 9999 SCT025 BKN030 06/05 Q1009
TAF LIRA 191700Z 1918/2018 VRB05KT 9999 SCT030 
     TEMPO 1918/1921 SHRA 
     BECMG 1922/1924 3000 BR 
     TEMPO 2001/2006 1200 BCFG 
     BECMG 2006/2008 7000
       
TAF LIBC 191100Z 1912/2012 02010KT 9999 FEW040 
     BECMG 1916/1918 VRB04KT 
     TEMPO 1921/2006 RA
       
LIED 192055Z 30004KT 9999 FEW018 05/04 Q1012 RMK SCT SCT200 VIS MIN 9999 WIND THR35 29003KT WIND THR17 /////KT BLU
TAF LIED 192000Z 1921/2006 33005KT 9999 SCT020 
     TEMPO 1921/1924 5000 BR FEW005 BKN020 
     TEMPO 2000/2006 3000 BR SCT005
       
LIEE 192120Z 34004KT 310V020 CAVOK 07/05 Q1012
TAF LIEE 191700Z 1918/2018 32008KT 9999 SCT030 
     TEMPO 2012/2018 RA
       
LIPY 192050Z 30008KT 8000 -RA SCT015 BKN030 05/03 Q1013
TAF LIPY 191700Z 1918/2018 32008KT 9999 SCT012 BKN020 
     TEMPO 1918/2012 4000 RA
       
LIRF 192120Z 04005KT 9999 SCT050 08/03 Q1010 NOSIG
TAF LIRF 191700Z 1918/2024 34008KT 9999 SCT030 
     TEMPO 1921/2006 3000 BR 
     BECMG 2008/2010 26010KT
       
LIPK 191650Z VRB01KT 5000 BR FEW005 BKN015 04/01 Q1015
LIMJ 192120Z 07005KT 030V090 CAVOK 06/M01 Q1013
TAF LIMJ 191700Z 1918/2018 34008KT 9999 SCT050
       
LIPL 192055Z /////KT 8000 SCT045 SCT070 03/M01 Q1015 RMK BKN VIS MIN 8000 WIND THR31 31002KT BLU
TAF LIPL 192000Z 1921/2006 30006KT 9999 SCT040 SCT070 
     TEMPO 1921/1924 4000 BR 
     TEMPO 2000/2006 VRB03KT 1500 BR BKN015
       
LIBV 192055Z 32003KT 2500 BR SCT003 BKN005 06/06 Q1010 RMK OVC VIS MIN 2500 WIND THR32 34003KT WIND THR14 32002KT YLO
TAF LIBV 192000Z 1921/2006 36005KT 1600 BR SCT005 BKN020 
     TEMPO 1921/2003 0800 RA FG BKN004
       
LIRM 192055Z /////KT 9999 SCT025 BKN070 09/07 Q1010 RERA
TAF LIRM 192000Z 1921/2006 03010KT 5000 RA BR SCT018 BKN040 
     TEMPO 1921/2003 VRB02KT 1100 BCFG BKN002 
     PROB30 
     TEMPO 1921/1924 SHRA FEW015CB
       
LIRS 192055Z 36009KT 9999 FEW050 07/01 Q1011 RMK BKN SCT080 VIS MIN 9999 WIND THR03 35007KT WIND THR21 36007KT BLU
TAF LIRS 192000Z 1921/2006 01011KT 9999 FEW030 SCT045
       
LIBG 191850Z 00000KT 9999 FEW015 10/08 Q1010
TAF LIBG 191700Z 1918/2003 VRB06KT 9999 SCT030
       
LIRG 191755Z 24004KT 9999 -DZ SCT020TCU SCT040 10/09 Q1011 RMK OVC MON NE GEN INC NC VIS MIN 9999 BLU
TAF LIRG 191400Z 1915/1924 VRB03KT 9999 SCT022 SCT050 
     TEMPO 1915/1921 17010KT 5000 RA BR BKN020 
     PROB30 
     TEMPO 1918/1924 3000 TSRA FEW015CB
       
LIPS 192055Z 08004KT 9999 BKN055 04/M00 Q1015 RMK BKN VIS MIN 9999 WIND THR26 07003KT WIND THR08 07004KT BLU
TAF LIPS 192000Z 1921/2006 10006KT 9999 BKN050 
     TEMPO 2000/2006 VRB03KT 5000 BR
       
LICA 192050Z 00000KT 5000 -RA SCT030 BKN060 10/09 Q1011
TAF LICA 191700Z 1918/2018 VRB05KT 9999 SCT020 SCT070 
     TEMPO 1918/2002 4000 RA 
     TEMPO 2002/2015 3000 SHRA 
     BECMG 2006/2008 27012KT
       
LICD 192050Z 30009KT 9999 FEW030 13/07 Q1014
TAF COR LICD 191713Z 1918/2018 33015G25KT 9999 SCT020 
     TEMPO 2003/2015 SHRA 
     BECMG 2006/2008 27012KT
       
LIRL 191755Z 31002KT 9999 SCT018 SCT040 10/08 Q1010 RMK BKN MON INVIS VAR RAPID VIS MIN 9999 WIND THR12 00000KT WIND THR30 /////KT BLU
TAF LIRL 191700Z 1918/2003 11007KT 9999 SCT020 SCT060 
     TEMPO 1918/1924 5000 RA BR BKN018 
     PROB30 
     TEMPO 1918/1921 SHRA FEW016CB
       
LIBN 192055Z 33002KT 2000 BR SCT040 07/07 Q1011 RMK BKN BKN100 VIS MIN 2000 WIND THR14 34002KT WIND THR32 35002KT YLO
TAF LIBN 191400Z 1915/1924 VRB05KT 7000 BKN025 
     TEMPO 1915/1918 4000 RA SCT015 BKN022
       
LIMZ 191950Z 08003KT 999 SCT025 04/02 Q1013
TAF LIMZ 191700Z 1918/2018 VRB05KT 7000 BKN020
       
LIML 192120Z 00000KT CAVOK 03/M01 Q1014 NOSIG
TAF LIML 191700Z 1918/2018 VRB05KT 9999 BKN050
       
LIMC 192120Z VRB01KT 9999 SCT040 03/M01 Q1013 NOSIG
TAF LIMC 191700Z 1918/2024 VRB05KT 9999 BKN050
       
LIPO 192050Z 00000KT 9999 BKN050 04/M00 Q1014
TAF LIPO 191700Z 1918/2018 VRB05KT 9999 BKN030
       
LIEO 192120Z VRB02KT 9999 SCT030 06/05 Q1012
TAF LIEO 191700Z 1918/2018 VRB05KT 9999 SCT030 
     TEMPO 2004/2012 RA 
     BECMG 2010/2012 04010KT
       
LICJ 192120Z 20006KT 180V240 9000 RA BKN025 11/09 Q1012
TAF LICJ 191700Z 1918/2018 29012KT 9999 SCT025 
     TEMPO 1918/1921 4000 RA 
     TEMPO 2002/2015 3000 SHRA 
     BECMG 2006/2008 22010KT
       
LIBD 192120Z 29008KT 8000 SCT020 08/06 Q1011
TAF LIBD 191700Z 1918/2018 30008KT 7000 SCT030 
     TEMPO 1918/2006 4000 RA 
     BECMG 2012/2014 02010KT
       
LICG 191755Z 31010KT 9999 SCT010 SCT025 11/09 Q1012 RMK BKN BKN060 VIS MIN 9999 WIND THR08 /////KT WIND THR21 33008KT BLU
TAF LICG 191700Z 1918/2003 31010KT 9999 SCT010 BKN020
       
LIMP 191950Z VRB01KT 9999 SCT030 05/M01 Q1015
TAF LIMP 191700Z 1918/2018 VRB05KT 9999 SCT020
       
LIRQ 192120Z VRB04KT CAVOK 05/M03 Q1013
TAF LIRQ 191700Z 1918/2018 VRB06KT 9999 SCT030 SCT050 
     BECMG 2006/2009 04010KT
       
LIRZ 192050Z 01008KT CAVOK 04/00 Q1011
TAF LIRZ 191700Z 1918/2018 03010KT 9999 BKN040 
     BECMG 1920/1922 VRB05KT 
     BECMG 2010/2012 03010KT
       
LIBP 192050Z 22004KT 9999 -RA FEW015 BKN020 06/05 Q1013
TAF LIBP 191700Z 1918/2018 34008KT 7000 SCT025 BKN050 
     TEMPO 1918/2006 4000 RA 
     TEMPO 2006/2018 3000 SHRA
       
LIMS 191755Z 10003KT 6000 SCT060 04/04 Q1014 RMK SCT VIS MIN 6000 WIND THR30 12001KT WHT
LIRP 192115Z 14007KT CAVOK 03/00 Q1012 NOSIG
TAF LIRP 191700Z 1918/2018 11012KT 9999 SCT070 
     BECMG 1922/1924 05006KT 
     PROB40 
     TEMPO 2000/2006 5000 MIFG NSC
       
LIRE 192055Z 03008KT 9999 SCT060 08/08 Q1009 RMK SCT VIS MIN 9999 WIND THR13 02007KT WIND THR31 02008KT BLU
TAF LIRE 192000Z 1921/2006 01008KT 8000 FEW020 SCT050 
     TEMPO 1921/2003 5000 RA BR BKN020 
     PROB30 
     TEMPO 1923/2003 SHRA FEW015CB
       
LICR 192050Z 10005KT 9999 RA SCT030 12/10 Q1011
TAF LICR 191700Z 1918/2018 36012KT 9999 SCT040 
     TEMPO 1918/2006 RA 
     TEMPO 2012/2018 3000 SHRA
       
LIPR 192115Z 26005KT 6000 BKN027 05/03 Q1015
TAF LIPR 192000Z 1921/2006 26008KT 9999 BKN030 
     TEMPO 1921/2006 2000 BR BKN015 
     PROB40 
     TEMPO 2000/2006 30015G25KT
       
TAF LIPI 191400Z 1915/1924 06007KT 9999 FEW050 BKN080 
     TEMPO 1915/1918 06010G20KT
       
LIPQ 192120Z 06008KT 040V100 9999 SCT050 03/M05 Q1014
TAF LIPQ 191700Z 1918/2018 09010KT 9999 SCT050
       
LICZ 192055Z 22002KT 9999 SCT020 SCT070 07/07 Q1011 RMK BKN VIS MIN 9999 WIND THR28 26003T WIND THR10 04003KT A2987 BLU
TAF LICZ 192000Z 1921/2006 26008KT 7000 SCT020 SCT060
       
LIMF 192120Z 03003KT 9999 BKN030 03/00 Q1013
TAF LIMF 191700Z 1918/2018 VRB05KT 9999 BKN050
       
LICT 192055Z 08001KT 9999 SCT025 10/09 Q1012 RMK SCT VIS MIN 9999 WIND THR13 32007KT BLU
TAF LICT 192000Z 1921/2006 13005KT 9999 SCT025 
     TEMPO 1921/2006 26015KT 5000 SHRA FEW015CB BKN025
       
LIPH 192120Z 07006KT 9999 SCT060 03/M03 Q1015
TAF LIPH 191700Z 1918/2018 VRB05KT 9999 SCT050
       
TAF LIRU 191400Z 1915/1924 03006KT 9999 SCT040 
     TEMPO 1921/1924 3000 BR
       
LIPZ 192120Z 02009KT CAVOK 03/M03 Q1014 NOSIG
TAF LIPZ 191700Z 1918/2024 04009KT 9999 SCT040
       
LIPX 192120Z 13002KT 9999 FEW040 BKN060 04/00 Q1014
TAF LIPX 192000Z 1921/2006 VRB05KT 9999 BKN050
       
LIRV 191755Z 03010KT 9999 FEW025 BKN040 06/02 Q1010 RMK BKN MON E SE LIB NC VIS MIN 9999 BLU
TAF LIRV 191400Z 1915/1924 03015KT 9999 SCT025 SCT050 
     PROB30 
     TEMPO 1915/1921 5000 RA BKN020